Time;durP1;ratioP1;P1;durP2;ratioP2;P2;SDS_P1;SDS_P2;PMS_P1;PMS_P2;Temp;Humidity;BMP_temperature;BMP_pressure;BME280_temperature;BME280_humidity;BME280_pressure;Samples;Min_cycle;Max_cycle;Signal;HPM_P1;HPM_P2
2022/08/12 00:52:04;;;;;;;1.27;1.27;;;;;;;;;;10495308;28;20210;-76
2022/08/12 00:56:47;;;;;;;1.05;1.05;;;;;;;;;;10496079;28;20687;-76
2022/08/12 01:01:49;;;;;;;1.10;1.10;;;;;;;;;;10476725;28;20287;-76
2022/08/12 01:12:14;;;;;;;1.30;1.30;;;;;;;;;;10493445;28;20245;-76
2022/08/12 01:17:15;;;;;;;1.13;1.13;;;;;;;;;;10488462;28;20221;-76
2022/08/12 01:22:26;;;;;;;1.40;1.40;;;;;;;;;;10494180;28;20210;-76
2022/08/12 01:27:28;;;;;;;1.48;1.20;;;;;;;;;;10492085;28;20210;-76
2022/08/12 01:32:30;;;;;;;0.90;0.90;;;;;;;;;;10495845;28;20291;-76
2022/08/12 01:37:35;;;;;;;1.20;1.20;;;;;;;;;;10491992;28;20606;-75
2022/08/12 01:42:46;;;;;;;1.10;1.10;;;;;;;;;;10494881;28;20214;-76
2022/08/12 01:47:53;;;;;;;1.00;1.00;;;;;;;;;;10489175;28;20216;-79
2022/08/12 01:52:54;;;;;;;1.17;1.17;;;;;;;;;;10493034;28;20206;-78
2022/08/12 01:57:57;;;;;;;1.17;1.17;;;;;;;;;;10473702;28;20218;-77
2022/08/12 02:03:07;;;;;;;1.30;1.30;;;;;;;;;;10491447;28;20230;-77
2022/08/12 02:14:05;;;;;;;1.13;1.13;;;;;;;;;;10496726;28;20261;-77
2022/08/12 02:19:12;;;;;;;1.38;1.38;;;;;;;;;;10500162;28;20253;-77
2022/08/12 02:24:18;;;;;;;1.10;1.10;;;;;;;;;;10493273;28;20241;-77
2022/08/12 02:29:19;;;;;;;1.20;1.10;;;;;;;;;;10505752;28;20321;-78
2022/08/12 02:34:21;;;;;;;1.30;1.30;;;;;;;;;;10497075;28;20708;-77
2022/08/12 02:39:25;;;;;;;1.30;1.30;;;;;;;;;;10497833;28;20649;-77
2022/08/12 02:44:28;;;;;;;1.10;1.00;;;;;;;;;;10500249;28;20221;-77
2022/08/12 02:49:30;;;;;;;1.40;1.40;;;;;;;;;;10493182;28;20596;-78
2022/08/12 02:54:31;;;;;;;1.20;1.20;;;;;;;;;;10494805;28;20750;-78
2022/08/12 02:59:34;;;;;;;1.00;1.00;;;;;;;;;;10493941;28;20225;-78
2022/08/12 03:04:43;;;;;;;1.23;1.23;;;;;;;;;;10492161;28;20234;-76
2022/08/12 03:09:51;;;;;;;1.08;1.05;;;;;;;;;;10504705;28;20301;-77
2022/08/12 03:14:54;;;;;;;1.38;1.38;;;;;;;;;;10486142;28;20210;-78
2022/08/12 03:19:59;;;;;;;1.35;1.35;;;;;;;;;;10502007;28;20218;-77
2022/08/12 03:25:02;;;;;;;1.30;1.25;;;;;;;;;;10477960;28;20225;-78
2022/08/12 03:30:03;;;;;;;1.00;1.00;;;;;;;;;;10499560;28;20228;-77
2022/08/12 03:35:06;;;;;;;1.10;1.10;;;;;;;;;;10501464;28;20243;-78
2022/08/12 03:41:31;;;;;;;1.20;1.20;;;;;;;;;;10503699;28;20201;-77
2022/08/12 04:01:30;;;;;;;1.30;1.30;;;;;;;;;;10496130;28;20214;-77
2022/08/12 04:06:31;;;;;;;1.05;0.93;;;;;;;;;;10498018;28;20271;-78
2022/08/12 04:16:57;;;;;;;1.48;1.38;;;;;;;;;;10495812;28;20230;-78
2022/08/12 04:21:59;;;;;;;1.02;1.02;;;;;;;;;;10483460;28;20205;-77
2022/08/12 04:27:01;;;;;;;1.50;1.50;;;;;;;;;;10480606;28;20260;-78
2022/08/12 04:32:03;;;;;;;1.30;1.23;;;;;;;;;;10497114;28;20205;-78
2022/08/12 04:37:04;;;;;;;0.90;0.90;;;;;;;;;;10473737;28;21089;-77
2022/08/12 04:42:05;;;;;;;0.88;0.88;;;;;;;;;;10482737;28;20573;-69
2022/08/12 04:47:09;;;;;;;0.98;0.98;;;;;;;;;;10483991;28;20218;-70
2022/08/12 04:52:11;;;;;;;1.67;1.58;;;;;;;;;;10484581;28;20218;-69
2022/08/12 04:57:12;;;;;;;1.23;1.23;;;;;;;;;;10478293;28;20313;-70
2022/08/12 05:02:13;;;;;;;1.23;1.23;;;;;;;;;;10486232;28;20233;-70
2022/08/12 05:07:14;;;;;;;1.38;1.38;;;;;;;;;;10481730;28;20222;-70
2022/08/12 05:12:18;;;;;;;1.50;1.50;;;;;;;;;;10487658;28;20617;-69
2022/08/12 05:17:19;;;;;;;1.70;1.70;;;;;;;;;;10480836;28;20951;-70
2022/08/12 05:22:20;;;;;;;1.10;1.00;;;;;;;;;;10484581;28;20214;-70
2022/08/12 05:27:21;;;;;;;1.23;1.23;;;;;;;;;;10481788;28;20217;-70
2022/08/12 05:32:24;;;;;;;1.33;1.33;;;;;;;;;;10479270;28;20210;-70
2022/08/12 05:37:25;;;;;;;1.45;1.45;;;;;;;;;;10446898;28;20272;-70
2022/08/12 05:42:27;;;;;;;1.88;1.77;;;;;;;;;;10483873;28;20263;-71
2022/08/12 05:47:28;;;;;;;1.50;1.50;;;;;;;;;;10456400;28;20295;-72
2022/08/12 05:52:29;;;;;;;1.67;1.58;;;;;;;;;;10462358;28;20202;-71
2022/08/12 05:57:30;;;;;;;2.15;2.05;;;;;;;;;;10482785;28;20222;-69
2022/08/12 06:02:31;;;;;;;1.83;1.60;;;;;;;;;;10483480;28;20229;-72
2022/08/12 06:07:33;;;;;;;1.65;1.55;;;;;;;;;;10456339;28;20222;-72
2022/08/12 06:12:35;;;;;;;1.58;1.58;;;;;;;;;;10488770;28;20261;-73
2022/08/12 06:17:36;;;;;;;1.63;1.58;;;;;;;;;;10457360;28;20228;-72
2022/08/12 06:22:38;;;;;;;1.40;1.40;;;;;;;;;;10460787;28;20619;-72
2022/08/12 06:27:48;;;;;;;1.17;1.17;;;;;;;;;;10489469;28;20697;-71
2022/08/12 06:32:51;;;;;;;1.00;1.00;;;;;;;;;;10484363;28;20267;-73
2022/08/12 06:37:56;;;;;;;0.98;0.98;;;;;;;;;;10459134;28;20225;-74
2022/08/12 06:42:57;;;;;;;0.98;0.98;;;;;;;;;;10475645;28;20224;-72
2022/08/12 06:48:00;;;;;;;0.93;0.93;;;;;;;;;;10475786;28;20272;-72
2022/08/12 06:53:03;;;;;;;1.00;1.00;;;;;;;;;;10478595;28;20213;-73
2022/08/12 06:58:04;;;;;;;0.90;0.90;;;;;;;;;;10477585;28;20232;-73
2022/08/12 07:03:06;;;;;;;0.70;0.70;;;;;;;;;;10462592;28;20343;-73
2022/08/12 07:08:07;;;;;;;0.90;0.90;;;;;;;;;;10489983;28;20218;-72
2022/08/12 07:13:08;;;;;;;0.93;0.93;;;;;;;;;;10490570;28;20214;-73
2022/08/12 07:18:19;;;;;;;0.80;0.80;;;;;;;;;;10488262;28;20236;-72
2022/08/12 07:23:20;;;;;;;0.50;0.50;;;;;;;;;;10460394;28;20581;-72
2022/08/12 07:28:23;;;;;;;0.60;0.60;;;;;;;;;;10481590;28;20236;-73
2022/08/12 07:33:26;;;;;;;0.63;0.63;;;;;;;;;;10489464;28;20206;-74
2022/08/12 07:38:29;;;;;;;0.55;0.55;;;;;;;;;;10491456;28;20340;-74
2022/08/12 07:43:30;;;;;;;0.45;0.45;;;;;;;;;;10464492;28;20218;-74
2022/08/12 07:48:35;;;;;;;0.77;0.77;;;;;;;;;;10488859;28;20210;-74
2022/08/12 07:53:37;;;;;;;0.50;0.50;;;;;;;;;;10478514;28;20227;-74
2022/08/12 07:58:39;;;;;;;0.50;0.50;;;;;;;;;;10478536;28;20269;-75
2022/08/12 08:04:54;;;;;;;0.50;0.50;;;;;;;;;;10492436;28;20229;-73
2022/08/12 08:09:03;;;;;;;0.60;0.60;;;;;;;;;;10492677;28;20810;-74
2022/08/12 08:14:06;;;;;;;0.60;0.60;;;;;;;;;;10496655;28;20341;-75
2022/08/12 08:19:11;;;;;;;1.63;0.38;;;;;;;;;;10467203;28;20268;-74
2022/08/12 08:24:15;;;;;;;0.75;0.50;;;;;;;;;;10498968;28;20264;-74
2022/08/12 08:29:17;;;;;;;0.40;0.38;;;;;;;;;;10495205;28;20229;-76
2022/08/12 08:34:18;;;;;;;0.40;0.40;;;;;;;;;;10480643;28;20233;-76
2022/08/12 08:39:20;;;;;;;1.75;0.40;;;;;;;;;;10470338;28;20222;-76
2022/08/12 08:44:21;;;;;;;0.47;0.47;;;;;;;;;;10467408;28;20217;-76
2022/08/12 08:49:23;;;;;;;0.52;0.50;;;;;;;;;;10494704;28;20225;-75
2022/08/12 08:54:24;;;;;;;0.50;0.50;;;;;;;;;;10499697;28;20213;-76
2022/08/12 08:59:25;;;;;;;0.65;0.40;;;;;;;;;;10495566;28;21071;-77
2022/08/12 09:04:27;;;;;;;0.52;0.45;;;;;;;;;;10495045;28;20230;-77
2022/08/12 09:09:29;;;;;;;0.57;0.57;;;;;;;;;;10462474;28;21054;-77
2022/08/12 09:14:30;;;;;;;0.40;0.40;;;;;;;;;;10461942;28;20235;-76
2022/08/12 09:19:31;;;;;;;0.40;0.40;;;;;;;;;;10490351;28;20242;-77
2022/08/12 09:24:32;;;;;;;0.40;0.40;;;;;;;;;;10489000;28;20205;-75
2022/08/12 09:29:33;;;;;;;0.40;0.40;;;;;;;;;;10466299;28;20341;-76
2022/08/12 09:34:35;;;;;;;0.40;0.40;;;;;;;;;;10499096;28;20283;-75
2022/08/12 09:39:36;;;;;;;0.40;0.40;;;;;;;;;;10495370;28;20573;-75
2022/08/12 09:49:56;;;;;;;0.40;0.40;;;;;;;;;;10491215;28;20317;-76
2022/08/12 09:54:57;;;;;;;0.30;0.30;;;;;;;;;;10490589;28;20238;-74
2022/08/12 09:59:59;;;;;;;0.40;0.40;;;;;;;;;;10474143;28;20250;-74
2022/08/12 10:05:00;;;;;;;0.28;0.28;;;;;;;;;;10487236;28;20226;-73
2022/08/12 10:10:01;;;;;;;0.30;0.30;;;;;;;;;;10468001;28;20221;-73
2022/08/12 10:15:02;;;;;;;0.40;0.40;;;;;;;;;;10491308;28;20193;-74
2022/08/12 10:20:03;;;;;;;0.30;0.30;;;;;;;;;;10483109;28;20221;-73
2022/08/12 10:30:41;;;;;;;0.30;0.30;;;;;;;;;;10354246;28;20216;-73
2022/08/12 10:35:43;;;;;;;0.20;0.20;;;;;;;;;;10461112;28;20335;-74
2022/08/12 10:46:06;;;;;;;0.30;0.30;;;;;;;;;;10482106;28;20225;-73
2022/08/12 10:51:07;;;;;;;0.30;0.30;;;;;;;;;;10460779;28;20222;-74
2022/08/12 10:56:08;;;;;;;0.20;0.20;;;;;;;;;;10483093;28;20301;-73
2022/08/12 11:01:09;;;;;;;0.20;0.20;;;;;;;;;;10485135;28;20596;-74
2022/08/12 11:06:10;;;;;;;0.30;0.30;;;;;;;;;;10485859;28;20221;-75
2022/08/12 11:11:16;;;;;;;0.20;0.20;;;;;;;;;;10494846;28;20259;-77
2022/08/12 11:16:17;;;;;;;0.45;0.45;;;;;;;;;;10498382;28;20756;-77
2022/08/12 11:21:18;;;;;;;0.20;0.20;;;;;;;;;;10499594;28;20693;-78
2022/08/12 11:26:19;;;;;;;0.20;0.20;;;;;;;;;;10495948;28;20225;-76
2022/08/12 11:31:20;;;;;;;0.20;0.20;;;;;;;;;;10498327;28;20726;-76
2022/08/12 11:36:21;;;;;;;0.20;0.20;;;;;;;;;;10494704;28;20224;-73
2022/08/12 11:41:22;;;;;;;0.20;0.20;;;;;;;;;;10458691;28;20674;-74
2022/08/12 11:46:23;;;;;;;0.20;0.20;;;;;;;;;;10491524;28;20240;-75
2022/08/12 11:51:24;;;;;;;0.25;0.25;;;;;;;;;;10482059;28;20228;-77
2022/08/12 11:56:26;;;;;;;0.20;0.20;;;;;;;;;;10487809;28;20241;-76
2022/08/12 12:01:27;;;;;;;0.30;0.30;;;;;;;;;;10495396;28;20229;-74
2022/08/12 12:06:28;;;;;;;0.20;0.20;;;;;;;;;;10491980;28;20258;-74
2022/08/12 12:11:29;;;;;;;0.20;0.20;;;;;;;;;;10486036;28;20772;-73
2022/08/12 12:16:30;;;;;;;0.40;0.40;;;;;;;;;;10466453;28;20316;-69
2022/08/12 12:21:31;;;;;;;0.20;0.20;;;;;;;;;;10494348;28;20218;-76
2022/08/12 12:26:32;;;;;;;0.20;0.20;;;;;;;;;;10495848;28;20756;-77
2022/08/12 12:31:33;;;;;;;0.22;0.22;;;;;;;;;;10478726;28;20217;-75
2022/08/12 12:36:34;;;;;;;1.75;0.20;;;;;;;;;;10466101;28;20248;-76
2022/08/12 12:41:35;;;;;;;0.20;0.20;;;;;;;;;;10483795;28;20742;-77
2022/08/12 12:46:36;;;;;;;0.30;0.30;;;;;;;;;;10467167;28;20209;-76
2022/08/12 12:51:37;;;;;;;0.25;0.20;;;;;;;;;;10475513;28;20209;-77
2022/08/12 12:56:43;;;;;;;0.20;0.20;;;;;;;;;;10478115;28;20317;-76
2022/08/12 13:01:44;;;;;;;0.20;0.20;;;;;;;;;;10478317;28;20932;-76
2022/08/12 13:06:50;;;;;;;0.20;0.20;;;;;;;;;;10483557;28;20218;-76
2022/08/12 13:11:52;;;;;;;0.28;0.28;;;;;;;;;;10485311;28;20739;-76
2022/08/12 13:16:53;;;;;;;0.30;0.30;;;;;;;;;;10491928;28;20690;-77
2022/08/12 13:27:15;;;;;;;0.30;0.30;;;;;;;;;;10497432;28;20214;-77
2022/08/12 13:32:17;;;;;;;0.30;0.30;;;;;;;;;;10497046;28;20272;-79
2022/08/12 13:37:22;;;;;;;0.20;0.20;;;;;;;;;;10498807;28;20229;-78
2022/08/12 13:42:23;;;;;;;0.30;0.30;;;;;;;;;;10458968;28;20213;-77
2022/08/12 13:47:24;;;;;;;0.28;0.28;;;;;;;;;;10486894;28;20213;-77
2022/08/12 13:52:25;;;;;;;0.30;0.30;;;;;;;;;;10477399;28;20210;-76
2022/08/12 13:57:39;;;;;;;0.20;0.20;;;;;;;;;;10478770;28;20515;-76
2022/08/12 14:02:40;;;;;;;0.20;0.20;;;;;;;;;;10476011;28;20230;-74
2022/08/12 14:07:53;;;;;;;0.20;0.20;;;;;;;;;;10484485;28;20218;-69
2022/08/12 14:12:54;;;;;;;0.30;0.30;;;;;;;;;;10490341;28;20213;-72
2022/08/12 14:17:55;;;;;;;0.30;0.30;;;;;;;;;;10473240;28;20217;-72
2022/08/12 14:22:58;;;;;;;0.30;0.30;;;;;;;;;;10480700;28;20807;-71
2022/08/12 14:28:03;;;;;;;0.28;0.28;;;;;;;;;;10453180;28;20272;-69
2022/08/12 14:33:04;;;;;;;1.00;0.30;;;;;;;;;;10474141;28;21179;-72
2022/08/12 14:38:15;;;;;;;0.40;0.40;;;;;;;;;;10470438;28;20858;-74
2022/08/12 14:43:16;;;;;;;0.50;0.50;;;;;;;;;;10474973;28;20226;-69
2022/08/12 14:48:18;;;;;;;0.30;0.30;;;;;;;;;;10468219;28;20294;-70
2022/08/12 14:53:19;;;;;;;0.30;0.30;;;;;;;;;;10475850;28;20217;-71
2022/08/12 14:58:21;;;;;;;0.40;0.40;;;;;;;;;;10482737;28;20696;-71
2022/08/12 15:03:26;;;;;;;0.30;0.30;;;;;;;;;;10456069;28;20226;-72
2022/08/12 15:08:29;;;;;;;0.30;0.30;;;;;;;;;;10491573;28;20308;-73
2022/08/12 15:13:31;;;;;;;0.40;0.40;;;;;;;;;;10497011;28;20279;-70
2022/08/12 15:18:33;;;;;;;0.30;0.30;;;;;;;;;;10467898;28;20238;-69
2022/08/12 15:23:34;;;;;;;0.30;0.30;;;;;;;;;;10485125;28;20712;-69
2022/08/12 15:28:35;;;;;;;0.30;0.30;;;;;;;;;;10487302;28;20286;-71
2022/08/12 15:33:37;;;;;;;0.30;0.30;;;;;;;;;;10481287;28;20636;-68
2022/08/12 15:38:38;;;;;;;0.30;0.30;;;;;;;;;;10494774;28;20210;-69
2022/08/12 15:43:39;;;;;;;0.30;0.30;;;;;;;;;;10498460;28;20296;-68
2022/08/12 15:48:42;;;;;;;0.40;0.40;;;;;;;;;;10486833;28;20229;-68
2022/08/12 15:59:03;;;;;;;0.35;0.35;;;;;;;;;;10480294;28;20217;-68
2022/08/12 16:04:04;;;;;;;0.40;0.40;;;;;;;;;;10479128;28;21070;-67
2022/08/12 16:09:05;;;;;;;0.40;0.40;;;;;;;;;;10458701;28;20218;-68
2022/08/12 16:14:08;;;;;;;0.52;0.52;;;;;;;;;;10491005;28;20719;-68
2022/08/12 16:19:09;;;;;;;0.50;0.50;;;;;;;;;;10482572;28;20220;-70
2022/08/12 16:24:10;;;;;;;0.43;0.43;;;;;;;;;;10479961;28;20705;-70
2022/08/12 16:29:11;;;;;;;0.52;0.52;;;;;;;;;;10470561;28;20697;-69
2022/08/12 16:34:15;;;;;;;0.50;0.50;;;;;;;;;;10491216;28;20297;-70
2022/08/12 16:39:16;;;;;;;0.70;0.55;;;;;;;;;;10489653;28;20233;-69
2022/08/12 16:44:17;;;;;;;0.70;0.70;;;;;;;;;;10463862;28;20653;-71
2022/08/12 16:49:19;;;;;;;0.50;0.50;;;;;;;;;;10487180;28;20210;-70
2022/08/12 16:54:21;;;;;;;0.50;0.50;;;;;;;;;;10500535;28;20218;-70
2022/08/12 16:59:22;;;;;;;0.50;0.50;;;;;;;;;;10495135;28;20570;-69
2022/08/12 17:04:23;;;;;;;0.40;0.40;;;;;;;;;;10500645;28;20234;-70
2022/08/12 17:09:24;;;;;;;0.60;0.60;;;;;;;;;;10494352;28;20256;-71
2022/08/12 17:14:25;;;;;;;0.40;0.40;;;;;;;;;;10484150;28;20575;-71
2022/08/12 17:19:28;;;;;;;1.20;1.20;;;;;;;;;;10464005;28;20214;-69
2022/08/12 17:24:31;;;;;;;0.60;0.60;;;;;;;;;;10492679;28;20753;-69
2022/08/12 17:29:33;;;;;;;0.50;0.50;;;;;;;;;;10490469;28;20297;-69
2022/08/12 17:39:54;;;;;;;0.57;0.40;;;;;;;;;;10493098;28;20562;-68
2022/08/12 17:44:59;;;;;;;0.35;0.35;;;;;;;;;;10490931;28;20226;-68
2022/08/12 17:50:04;;;;;;;0.30;0.30;;;;;;;;;;10498001;28;20218;-69
2022/08/12 17:55:06;;;;;;;0.30;0.30;;;;;;;;;;10461840;28;20241;-69
2022/08/12 18:00:16;;;;;;;0.40;0.40;;;;;;;;;;10488015;28;20932;-67
2022/08/12 18:05:19;;;;;;;0.40;0.40;;;;;;;;;;10491694;28;20226;-67
2022/08/12 18:15:40;;;;;;;0.60;0.60;;;;;;;;;;10492484;28;20246;-67
2022/08/12 18:20:41;;;;;;;1.40;1.40;;;;;;;;;;10494668;28;20218;-69
2022/08/12 18:31:14;;;;;;;1.70;1.60;;;;;;;;;;10464612;28;20229;-68
2022/08/12 18:36:18;;;;;;;1.25;1.25;;;;;;;;;;10490740;28;20230;-68
2022/08/12 18:41:29;;;;;;;0.70;0.70;;;;;;;;;;10483786;28;20697;-68
2022/08/12 18:46:33;;;;;;;0.60;0.60;;;;;;;;;;10466616;28;20217;-70
2022/08/12 18:51:34;;;;;;;0.60;0.60;;;;;;;;;;10472581;28;20217;-68
2022/08/12 18:56:37;;;;;;;1.65;0.70;;;;;;;;;;10493839;28;20303;-68
2022/08/12 19:01:39;;;;;;;0.40;0.40;;;;;;;;;;10487019;28;20224;-76
2022/08/12 19:06:40;;;;;;;0.50;0.50;;;;;;;;;;10462205;28;20248;-79
2022/08/12 19:17:03;;;;;;;0.40;0.40;;;;;;;;;;10487653;28;20218;-71
2022/08/12 19:22:05;;;;;;;0.52;0.52;;;;;;;;;;10487363;28;20222;-73
2022/08/12 19:27:07;;;;;;;0.50;0.50;;;;;;;;;;10488443;28;20213;-73
2022/08/12 19:32:10;;;;;;;0.50;0.50;;;;;;;;;;10486982;28;20760;-71
2022/08/12 19:37:13;;;;;;;1.20;0.60;;;;;;;;;;10482939;28;20333;-72
2022/08/12 19:42:16;;;;;;;0.50;0.50;;;;;;;;;;10489637;28;20202;-76
2022/08/12 19:47:20;;;;;;;0.45;0.45;;;;;;;;;;10485602;28;20221;-71
2022/08/12 19:52:26;;;;;;;0.77;0.75;;;;;;;;;;10483467;28;20217;-72
2022/08/12 19:57:28;;;;;;;2.15;0.57;;;;;;;;;;10493574;28;20226;-72
2022/08/12 20:02:32;;;;;;;0.60;0.60;;;;;;;;;;10496851;28;20241;-71
2022/08/12 20:07:33;;;;;;;0.70;0.70;;;;;;;;;;10495012;28;20218;-70
2022/08/12 20:12:34;;;;;;;0.65;0.65;;;;;;;;;;10491348;28;20221;-73
2022/08/12 20:17:37;;;;;;;0.70;0.70;;;;;;;;;;10490556;28;20244;-71
2022/08/12 20:22:40;;;;;;;0.60;0.60;;;;;;;;;;10487055;28;20229;-70
2022/08/12 20:27:42;;;;;;;0.50;0.50;;;;;;;;;;10494804;28;20202;-71
2022/08/12 20:32:53;;;;;;;0.70;0.70;;;;;;;;;;10498499;28;20296;-69
2022/08/12 20:37:54;;;;;;;0.73;0.73;;;;;;;;;;10493863;28;20218;-69
2022/08/12 20:42:56;;;;;;;0.65;0.65;;;;;;;;;;10492936;28;20248;-68
2022/08/12 20:47:57;;;;;;;0.70;0.70;;;;;;;;;;10492015;28;20218;-68
2022/08/12 20:52:58;;;;;;;0.70;0.70;;;;;;;;;;10459295;28;20237;-70
2022/08/12 20:57:59;;;;;;;0.68;0.68;;;;;;;;;;10489464;28;20218;-69
2022/08/12 21:08:20;;;;;;;0.70;0.70;;;;;;;;;;10491652;28;20225;-70
2022/08/12 21:13:22;;;;;;;0.80;0.80;;;;;;;;;;10482011;28;20277;-69
2022/08/12 21:18:23;;;;;;;0.52;0.52;;;;;;;;;;10456940;28;20237;-70
2022/08/12 21:23:24;;;;;;;0.52;0.52;;;;;;;;;;10483957;28;21060;-69
2022/08/12 21:28:25;;;;;;;0.65;0.65;;;;;;;;;;10488249;28;20227;-69
2022/08/12 21:33:26;;;;;;;0.50;0.50;;;;;;;;;;10486722;28;20205;-69
2022/08/12 21:38:30;;;;;;;0.60;0.60;;;;;;;;;;10495384;28;20217;-69
2022/08/12 21:43:31;;;;;;;0.73;0.68;;;;;;;;;;10493975;28;20217;-69
2022/08/12 21:48:32;;;;;;;0.63;0.60;;;;;;;;;;10493924;28;20588;-69
2022/08/12 21:53:34;;;;;;;0.50;0.50;;;;;;;;;;10497092;28;20214;-70
2022/08/12 21:58:36;;;;;;;0.75;0.75;;;;;;;;;;10494751;28;20282;-69
2022/08/12 22:09:00;;;;;;;0.60;0.60;;;;;;;;;;10496985;28;20241;-69
2022/08/12 22:14:04;;;;;;;0.57;0.57;;;;;;;;;;10499908;28;20205;-69
2022/08/12 22:19:05;;;;;;;0.60;0.60;;;;;;;;;;10494867;28;20225;-69
2022/08/12 22:24:08;;;;;;;0.40;0.40;;;;;;;;;;10496568;28;20212;-69
2022/08/12 22:34:29;;;;;;;0.50;0.50;;;;;;;;;;10490119;28;20222;-69
2022/08/12 22:39:32;;;;;;;1.65;0.80;;;;;;;;;;10441529;28;20245;-70
2022/08/12 22:49:53;;;;;;;0.60;0.60;;;;;;;;;;10489873;28;20225;-70
2022/08/12 22:54:57;;;;;;;0.50;0.50;;;;;;;;;;10493719;28;20256;-69
2022/08/12 22:59:58;;;;;;;2.20;0.60;;;;;;;;;;10495628;28;20590;-69
2022/08/12 23:04:59;;;;;;;0.40;0.40;;;;;;;;;;10486799;28;20752;-68
2022/08/12 23:10:01;;;;;;;0.80;0.60;;;;;;;;;;10475142;28;20273;-69
2022/08/12 23:15:02;;;;;;;0.50;0.50;;;;;;;;;;10478864;28;20206;-69
2022/08/12 23:20:03;;;;;;;0.70;0.70;;;;;;;;;;10490925;28;20214;-67
2022/08/12 23:25:04;;;;;;;0.50;0.50;;;;;;;;;;10501563;28;20187;-69
2022/08/12 23:30:06;;;;;;;0.50;0.50;;;;;;;;;;10462741;28;20214;-68
2022/08/12 23:35:07;;;;;;;0.70;0.70;;;;;;;;;;10496115;28;20174;-69
2022/08/12 23:40:09;;;;;;;0.60;0.57;;;;;;;;;;10466579;28;20226;-69
2022/08/12 23:45:10;;;;;;;0.70;0.70;;;;;;;;;;10486630;28;20218;-68
2022/08/12 23:50:11;;;;;;;0.40;0.40;;;;;;;;;;10483926;28;21013;-69
2022/08/12 23:55:13;;;;;;;0.50;0.50;;;;;;;;;;10488442;28;20903;-69
